Time;durP1;ratioP1;P1;durP2;ratioP2;P2;SDS_P1;SDS_P2;PMS_P1;PMS_P2;Temp;Humidity;BMP_temperature;BMP_pressure;BME280_temperature;BME280_humidity;BME280_pressure;Samples;Min_cycle;Max_cycle;Signal;HPM_P1;HPM_P2
2023/03/23 00:00:15;;;;;;;4.70;3.30;;;;;;;2.28;81.97;95607.47;106572;1276;26496;-68
2023/03/23 00:03:02;;;;;;;7.20;4.90;;;;;;;2.25;81.38;95605.17;106548;1276;22640;-68
2023/03/23 00:05:29;;;;;;;4.90;3.00;;;;;;;2.28;81.44;95606.42;106548;1276;22515;-68
2023/03/23 00:07:57;;;;;;;4.30;3.20;;;;;;;2.32;81.43;95603.02;106510;1276;24386;-68
2023/03/23 00:10:25;;;;;;;5.80;3.70;;;;;;;2.30;80.98;95601.25;106586;1276;22525;-68
2023/03/23 00:12:53;;;;;;;4.70;3.60;;;;;;;2.22;80.82;95595.92;106596;1276;22542;-68
2023/03/23 00:15:24;;;;;;;5.10;3.80;;;;;;;2.16;80.97;95595.85;106580;1266;22739;-68
2023/03/23 00:17:52;;;;;;;6.50;3.90;;;;;;;2.16;81.30;95595.48;106605;1276;22510;-68
2023/03/23 00:20:19;;;;;;;4.70;3.70;;;;;;;2.16;81.24;95593.95;106563;1276;22514;-68
2023/03/23 00:22:46;;;;;;;6.50;4.40;;;;;;;2.11;80.89;95597.35;106601;1276;22516;-68
2023/03/23 00:25:13;;;;;;;6.80;4.70;;;;;;;2.05;80.70;95593.11;106565;1276;22546;-68
2023/03/23 00:27:40;;;;;;;9.30;4.50;;;;;;;2.02;80.69;95596.34;106575;1276;22998;-67
2023/03/23 00:30:11;;;;;;;7.90;4.60;;;;;;;1.98;80.58;95595.25;106554;1276;24210;-68
2023/03/23 00:32:38;;;;;;;6.60;4.20;;;;;;;1.97;81.00;95590.38;106582;1276;25736;-68
2023/03/23 00:35:06;;;;;;;8.90;4.80;;;;;;;1.89;80.58;95593.91;106564;1276;23174;-68
2023/03/23 00:37:35;;;;;;;7.10;5.20;;;;;;;1.83;80.68;95591.20;106765;1276;22527;-68
2023/03/23 00:40:08;;;;;;;5.40;4.20;;;;;;;1.82;80.84;95593.80;106395;1276;23156;-68
2023/03/23 00:42:38;;;;;;;8.50;4.90;;;;;;;1.77;80.58;95594.59;106616;1276;22634;-68
2023/03/23 00:45:10;;;;;;;7.10;4.80;;;;;;;1.68;80.79;95591.85;106569;1276;25260;-68
2023/03/23 00:47:37;;;;;;;4.80;3.50;;;;;;;1.57;80.87;95591.50;106598;1276;22834;-68
2023/03/23 00:50:06;;;;;;;7.00;4.20;;;;;;;1.48;81.39;95590.33;106610;1276;22987;-68
2023/03/23 00:52:33;;;;;;;7.30;4.30;;;;;;;1.39;82.24;95586.54;106639;1276;22529;-68
2023/03/23 00:55:00;;;;;;;8.90;5.90;;;;;;;1.23;82.74;95585.41;106583;1276;25917;-67
2023/03/23 00:57:27;;;;;;;9.00;5.80;;;;;;;1.20;82.36;95583.79;106602;1276;22529;-68
2023/03/23 00:59:54;;;;;;;9.90;5.70;;;;;;;1.22;82.58;95584.52;106568;1270;24281;-67
2023/03/23 01:02:24;;;;;;;7.40;5.10;;;;;;;1.24;82.69;95576.73;106533;1276;22517;-68
2023/03/23 01:04:52;;;;;;;8.40;5.30;;;;;;;1.28;82.55;95578.73;106577;1276;24180;-67
2023/03/23 01:07:20;;;;;;;8.00;5.30;;;;;;;1.31;82.56;95580.19;106638;1276;22510;-67
2023/03/23 01:09:48;;;;;;;9.30;4.40;;;;;;;1.35;82.85;95580.77;106514;1271;24231;-68
2023/03/23 01:12:15;;;;;;;7.20;5.00;;;;;;;1.44;82.83;95578.98;106550;1276;22546;-67
2023/03/23 01:14:42;;;;;;;6.40;4.80;;;;;;;1.50;82.84;95581.00;106507;1276;25305;-68
2023/03/23 01:17:10;;;;;;;7.90;4.40;;;;;;;1.50;82.86;95575.80;106526;1276;22988;-68
2023/03/23 01:19:37;;;;;;;6.20;4.20;;;;;;;1.43;82.72;95574.14;106531;1276;22531;-67
2023/03/23 01:22:04;;;;;;;6.00;3.90;;;;;;;1.42;82.74;95574.64;106553;1276;25335;-68
2023/03/23 01:24:32;;;;;;;4.80;3.60;;;;;;;1.38;82.88;95573.18;106627;1276;22783;-67
2023/03/23 01:27:06;;;;;;;5.70;4.20;;;;;;;1.30;82.77;95572.52;106588;1276;24235;-68
2023/03/23 01:29:34;;;;;;;6.60;4.30;;;;;;;1.31;83.32;95564.57;106592;1276;22522;-67
2023/03/23 01:32:02;;;;;;;5.10;3.60;;;;;;;1.40;83.62;95563.50;106593;1260;22525;-67
2023/03/23 01:34:31;;;;;;;5.20;3.80;;;;;;;1.38;83.32;95565.55;106590;1276;22629;-68
2023/03/23 01:36:59;;;;;;;4.10;3.70;;;;;;;1.39;83.69;95567.65;106513;1276;22560;-67
2023/03/23 01:39:26;;;;;;;4.90;3.40;;;;;;;1.47;84.10;95564.83;106580;1276;25382;-67
2023/03/23 01:41:54;;;;;;;5.40;3.90;;;;;;;1.46;84.06;95567.77;106587;1270;24384;-68
2023/03/23 01:44:22;;;;;;;5.40;3.70;;;;;;;1.50;84.36;95566.44;106604;1265;24239;-67
2023/03/23 01:47:08;;;;;;;6.60;4.00;;;;;;;1.52;84.24;95567.69;106634;1266;22545;-67
2023/03/23 01:49:42;;;;;;;6.40;4.20;;;;;;;1.58;84.16;95563.61;106616;1276;22523;-68
2023/03/23 01:52:24;;;;;;;6.00;3.90;;;;;;;1.54;83.26;95562.51;106583;1276;24255;-67
2023/03/23 01:54:56;;;;;;;5.50;4.20;;;;;;;1.50;83.59;95561.58;106654;1276;22523;-68
2023/03/23 01:57:31;;;;;;;6.60;4.40;;;;;;;1.48;83.31;95559.29;106347;1276;22593;-68
2023/03/23 02:00:10;;;;;;;4.90;3.90;;;;;;;1.50;83.50;95556.55;106553;1276;24772;-68
2023/03/23 02:02:49;;;;;;;4.90;3.80;;;;;;;1.46;82.94;95558.59;106709;1276;25213;-67
2023/03/23 02:05:34;;;;;;;6.60;4.60;;;;;;;1.39;82.87;95554.47;106603;1276;24294;-67
2023/03/23 02:08:08;;;;;;;5.70;4.10;;;;;;;1.32;83.62;95555.58;106565;1276;22628;-68
2023/03/23 02:10:37;;;;;;;5.60;4.40;;;;;;;1.23;83.43;95556.98;106614;1276;24232;-68
2023/03/23 02:13:07;;;;;;;5.40;3.90;;;;;;;1.20;83.44;95556.24;106637;1276;22525;-67
2023/03/23 02:15:47;;;;;;;5.00;3.20;;;;;;;1.14;82.99;95555.28;106554;1276;25291;-67
2023/03/23 02:18:47;;;;;;;4.60;3.80;;;;;;;1.10;82.92;95553.99;106643;1276;22527;-67
2023/03/23 02:21:27;;;;;;;6.10;4.40;;;;;;;1.02;83.22;95557.15;106579;1276;23037;-68
2023/03/23 02:23:54;;;;;;;6.10;4.10;;;;;;;0.97;83.92;95558.45;106685;1276;22775;-67
2023/03/23 02:26:30;;;;;;;8.90;4.50;;;;;;;0.94;83.59;95560.98;106564;1276;22510;-67
2023/03/23 02:29:20;;;;;;;5.10;3.50;;;;;;;0.95;83.92;95563.77;106574;1276;22553;-67
2023/03/23 02:32:03;;;;;;;5.50;3.20;;;;;;;0.91;83.91;95568.90;106542;1276;22629;-68
2023/03/23 02:34:37;;;;;;;5.20;4.10;;;;;;;0.85;83.59;95573.64;106549;1276;24385;-67
2023/03/23 02:37:30;;;;;;;7.10;4.90;;;;;;;0.82;83.59;95579.13;106622;1276;23886;-67
2023/03/23 02:40:11;;;;;;;7.20;5.00;;;;;;;0.83;83.69;95582.44;106575;1276;24256;-68
2023/03/23 02:42:41;;;;;;;6.60;4.90;;;;;;;0.85;83.94;95580.40;106625;1276;22646;-68
2023/03/23 02:45:11;;;;;;;6.90;4.50;;;;;;;0.89;84.03;95584.45;106538;1276;25686;-67
2023/03/23 02:47:41;;;;;;;6.00;4.20;;;;;;;0.90;84.02;95580.66;106587;1276;22530;-67
2023/03/23 02:50:14;;;;;;;6.70;4.70;;;;;;;0.80;83.97;95586.70;106651;1276;24255;-67
2023/03/23 02:52:45;;;;;;;5.00;3.70;;;;;;;0.75;84.72;95591.29;106522;1276;25398;-67
2023/03/23 02:55:13;;;;;;;7.60;4.30;;;;;;;0.73;84.78;95593.85;106645;1276;22524;-67
2023/03/23 02:57:43;;;;;;;4.80;3.40;;;;;;;0.75;84.76;95593.71;106533;1276;22536;-67
2023/03/23 03:00:14;;;;;;;5.70;4.40;;;;;;;0.79;84.98;95591.89;106514;1254;25377;-67
2023/03/23 03:02:52;;;;;;;6.10;4.20;;;;;;;0.87;85.29;95591.88;106598;1276;25571;-67
2023/03/23 03:05:38;;;;;;;5.10;4.00;;;;;;;0.95;85.55;95594.80;106611;1266;22513;-67
2023/03/23 03:08:28;;;;;;;5.40;4.20;;;;;;;1.07;85.48;95594.84;106613;1276;25527;-67
2023/03/23 03:11:03;;;;;;;7.50;5.00;;;;;;;1.14;85.08;95593.90;106522;1276;22640;-67
2023/03/23 03:13:40;;;;;;;5.10;3.70;;;;;;;1.20;85.09;95595.58;106596;1276;22788;-67
2023/03/23 03:16:14;;;;;;;7.40;4.90;;;;;;;1.16;84.48;95593.95;106578;1276;24387;-67
2023/03/23 03:19:02;;;;;;;6.10;4.10;;;;;;;1.15;84.63;95590.64;106607;1276;22506;-67
2023/03/23 03:21:34;;;;;;;5.60;3.70;;;;;;;1.16;84.58;95592.73;106529;1276;24412;-67
2023/03/23 03:24:07;;;;;;;6.90;4.10;;;;;;;1.22;84.87;95591.45;106590;1276;22659;-67
2023/03/23 03:26:35;;;;;;;;;;;;;;;1.23;84.53;95592.33;106619;1276;25364;-67
2023/03/23 03:29:20;;;;;;;4.10;3.40;;;;;;;1.25;84.52;95595.49;106570;1276;25445;-67
2023/03/23 03:31:51;;;;;;;5.00;3.90;;;;;;;1.17;84.06;95597.94;106552;1276;25271;-67
2023/03/23 03:34:18;;;;;;;6.40;3.70;;;;;;;1.09;83.91;95600.40;106618;1276;22526;-67
2023/03/23 03:36:50;;;;;;;7.20;4.50;;;;;;;1.02;84.01;95597.51;106627;1276;22747;-67
2023/03/23 03:39:20;;;;;;;6.20;4.50;;;;;;;1.06;84.45;95597.23;106585;1276;24073;-67
2023/03/23 03:41:48;;;;;;;7.90;4.40;;;;;;;1.09;84.59;95601.97;106509;1276;25249;-67
2023/03/23 03:44:16;;;;;;;5.50;4.30;;;;;;;1.10;84.28;95598.52;106586;1276;22520;-67
2023/03/23 03:46:43;;;;;;;5.90;4.30;;;;;;;1.05;83.94;95600.86;106579;1276;24269;-67
2023/03/23 03:49:12;;;;;;;6.70;4.70;;;;;;;1.01;83.84;95600.97;106560;1276;23159;-67
2023/03/23 03:51:40;;;;;;;6.70;5.20;;;;;;;0.99;83.73;95602.66;106655;1273;22519;-67
2023/03/23 03:54:10;;;;;;;4.50;3.60;;;;;;;0.97;83.79;95604.35;106604;1276;25580;-67
2023/03/23 03:56:40;;;;;;;5.60;4.10;;;;;;;0.88;83.20;95605.90;106585;1263;22536;-68
2023/03/23 03:59:33;;;;;;;6.30;4.10;;;;;;;0.76;83.43;95604.48;106608;1276;22518;-67
2023/03/23 04:02:19;;;;;;;6.40;4.60;;;;;;;0.71;83.53;95603.52;106522;1276;25369;-67
2023/03/23 04:04:49;;;;;;;9.80;5.00;;;;;;;0.69;84.07;95605.36;106612;1276;24780;-67
2023/03/23 04:07:17;;;;;;;6.50;4.30;;;;;;;0.63;84.10;95607.17;106590;1265;22522;-67
2023/03/23 04:09:49;;;;;;;8.40;4.70;;;;;;;0.62;84.33;95605.05;106572;1276;22640;-67
2023/03/23 04:12:18;;;;;;;5.30;3.70;;;;;;;0.60;84.34;95606.40;106570;1276;24241;-67
2023/03/23 04:14:58;;;;;;;6.10;4.40;;;;;;;0.49;84.43;95610.35;106565;1276;22660;-67
2023/03/23 04:17:35;;;;;;;7.70;4.90;;;;;;;0.40;84.39;95610.02;106596;1276;22527;-67
2023/03/23 04:20:13;;;;;;;11.20;5.10;;;;;;;0.41;84.36;95608.45;106612;1276;22635;-67
2023/03/23 04:22:43;;;;;;;7.90;5.00;;;;;;;0.45;84.38;95611.81;106560;1276;22539;-67
2023/03/23 04:25:12;;;;;;;6.10;4.80;;;;;;;0.44;84.49;95611.46;106594;1276;22516;-66
2023/03/23 04:27:43;;;;;;;6.20;5.10;;;;;;;0.48;85.01;95616.21;106622;1276;22523;-66
2023/03/23 04:30:12;;;;;;;7.60;5.10;;;;;;;0.52;85.37;95619.41;106608;1276;22523;-67
2023/03/23 04:32:50;;;;;;;8.80;4.80;;;;;;;0.56;85.41;95625.38;106586;1276;24269;-67
2023/03/23 04:35:21;;;;;;;7.70;4.70;;;;;;;0.65;85.53;95623.65;106607;1276;24229;-67
2023/03/23 04:37:53;;;;;;;;;;;;;;;0.73;85.68;95625.01;106587;1276;22504;-67
2023/03/23 04:40:21;;;;;;;7.60;5.70;;;;;;;0.73;84.93;95627.61;106584;1276;24201;-67
2023/03/23 04:43:05;;;;;;;8.40;5.10;;;;;;;0.71;84.90;95629.31;106595;1276;22786;-67
2023/03/23 04:45:57;;;;;;;7.70;5.00;;;;;;;0.73;84.89;95628.64;106552;1274;22563;-67
2023/03/23 04:48:27;;;;;;;7.30;4.80;;;;;;;0.78;85.34;95629.63;106608;1276;25385;-67
2023/03/23 04:51:05;;;;;;;7.30;5.00;;;;;;;0.82;85.40;95629.34;106587;1276;25329;-67
2023/03/23 04:53:33;;;;;;;5.40;4.30;;;;;;;0.90;85.51;95627.09;106583;1276;25620;-67
2023/03/23 04:56:03;;;;;;;7.40;4.60;;;;;;;1.02;85.81;95630.27;106625;1270;22630;-67
2023/03/23 04:58:35;;;;;;;6.70;4.30;;;;;;;1.10;85.81;95630.05;106635;1276;25594;-67
2023/03/23 05:01:21;;;;;;;5.90;4.30;;;;;;;1.19;85.54;95631.77;106287;1276;22526;-67
2023/03/23 05:04:00;;;;;;;4.90;4.10;;;;;;;1.26;85.32;95636.05;106639;1276;24519;-67
2023/03/23 05:06:27;;;;;;;6.30;4.30;;;;;;;1.33;85.22;95631.33;106614;1276;22543;-67
2023/03/23 05:08:56;;;;;;;33.60;13.40;;;;;;;1.34;84.62;95632.90;106628;1276;24381;-67
2023/03/23 05:11:24;;;;;;;14.90;8.70;;;;;;;1.34;84.46;95634.98;106597;1276;22657;-67
2023/03/23 05:13:52;;;;;;;15.30;9.40;;;;;;;1.34;84.45;95638.62;106577;1276;22524;-67
2023/03/23 05:16:19;;;;;;;6.10;4.90;;;;;;;1.35;84.83;95636.39;106595;1276;24252;-67
2023/03/23 05:18:47;;;;;;;6.00;4.30;;;;;;;1.45;85.31;95638.11;106550;1276;24248;-67
2023/03/23 05:21:16;;;;;;;11.60;7.10;;;;;;;1.55;85.44;95639.84;106568;1276;23888;-67
2023/03/23 05:23:47;;;;;;;34.30;18.60;;;;;;;1.59;85.30;95636.27;106551;1276;22897;-67
2023/03/23 05:26:18;;;;;;;33.70;15.90;;;;;;;1.66;85.51;95641.79;106552;1276;22647;-67
2023/03/23 05:28:46;;;;;;;24.10;12.90;;;;;;;1.68;85.28;95647.88;106491;1276;22530;-67
2023/03/23 05:31:33;;;;;;;30.50;17.10;;;;;;;1.78;85.64;95647.16;106554;1257;22788;-67
2023/03/23 05:34:00;;;;;;;30.80;19.50;;;;;;;1.89;85.81;95651.69;106622;1276;22612;-67
2023/03/23 05:36:34;;;;;;;33.80;19.80;;;;;;;1.99;85.66;95650.27;106625;1276;25337;-67
2023/03/23 05:39:32;;;;;;;17.00;9.80;;;;;;;2.05;85.43;95647.58;106123;1276;22534;-67
2023/03/23 05:42:28;;;;;;;36.50;18.40;;;;;;;2.07;85.83;95643.44;106230;1276;22531;-67
2023/03/23 05:45:10;;;;;;;36.90;17.80;;;;;;;2.13;86.42;95643.52;106544;1276;25400;-67
2023/03/23 05:47:40;;;;;;;24.30;13.00;;;;;;;2.18;86.34;95642.04;106600;1276;24251;-67
2023/03/23 05:50:12;;;;;;;20.40;11.10;;;;;;;2.23;86.05;95643.83;106627;1276;22522;-67
2023/03/23 05:52:40;;;;;;;22.10;12.80;;;;;;;2.28;85.98;95643.75;106636;1276;22518;-67
2023/03/23 05:55:11;;;;;;;23.00;14.00;;;;;;;2.38;86.16;95645.45;106535;1253;22894;-67
2023/03/23 05:57:39;;;;;;;20.30;12.70;;;;;;;2.51;86.04;95644.92;106505;1276;24353;-67
2023/03/23 06:00:19;;;;;;;22.10;14.20;;;;;;;2.65;85.87;95645.46;106491;1276;24252;-67
2023/03/23 06:02:50;;;;;;;22.10;14.30;;;;;;;2.79;85.74;95641.63;106521;1276;25382;-65
2023/03/23 06:05:25;;;;;;;29.90;23.00;;;;;;;2.92;85.63;95636.58;106553;1276;24268;-67
2023/03/23 06:07:54;;;;;;;21.40;14.90;;;;;;;3.05;85.48;95634.64;106592;1276;22517;-69
2023/03/23 06:10:23;;;;;;;21.10;13.30;;;;;;;3.17;85.24;95638.60;106619;1276;24455;-74
2023/03/23 06:12:57;;;;;;;17.40;10.90;;;;;;;3.31;85.12;95637.70;106602;1276;25404;-72
2023/03/23 06:30:57;;;;;;;15.20;12.80;;;;;;;4.69;82.63;95630.65;104262;1298;557837;-64
2023/03/23 06:34:21;;;;;;;14.40;9.90;;;;;;;5.12;82.82;95635.05;102016;1288;5371327;-66
2023/03/23 06:38:00;;;;;;;;;;;;;;;;;;;;;
2023/03/23 06:42:16;;;;;;;24.30;19.10;;;;;;;5.56;81.83;95628.70;105503;1288;25711;-65
2023/03/23 06:45:33;;;;;;;16.00;10.90;;;;;;;5.80;82.49;95626.61;105653;1288;22534;-70
2023/03/23 06:52:58;;;;;;;;;;;;;;;;;;;;;
2023/03/23 06:56:37;;;;;;;;;;;;;;;;;;;;;
2023/03/23 07:00:50;;;;;;;15.60;10.40;;;;;;;6.95;81.06;95623.65;106074;1279;25294;-65
2023/03/23 07:04:06;;;;;;;16.20;10.70;;;;;;;7.17;80.19;95621.98;106250;1279;22640;-69
2023/03/23 07:12:40;;;;;;;14.40;8.60;;;;;;;7.61;78.83;95620.15;105825;1273;24257;-67
2023/03/23 07:15:54;;;;;;;;;;;;;;;;;;;;;
2023/03/23 07:20:06;;;;;;;15.90;9.70;;;;;;;7.90;77.57;95618.19;108585;1281;22635;-63
2023/03/23 07:23:29;;;;;;;20.50;11.00;;;;;;;8.14;77.68;95613.06;105959;1281;24232;-67
2023/03/23 07:34:47;;;;;;;44.80;27.40;;;;;;;8.80;75.41;95618.41;106023;1274;22538;-64
2023/03/23 07:42:57;;;;;;;33.20;24.50;;;;;;;9.27;75.18;95608.35;106142;1282;22538;-71
2023/03/23 07:46:05;;;;;;;;;;;;;;;;;;;;;
2023/03/23 07:54:02;;;;;;;13.20;8.60;;;;;;;9.96;73.05;95605.07;105480;1290;22534;-64
2023/03/23 07:58:18;;;;;;;;;;;;;;;;;;;;;
2023/03/23 08:05:51;;;;;;;6.30;5.00;;;;;;;10.59;68.72;95600.14;105839;1287;22638;-64
2023/03/23 08:09:37;;;;;;;6.70;4.60;;;;;;;10.87;66.02;95599.95;106050;1282;22621;-68
2023/03/23 08:13:24;;;;;;;5.60;4.80;;;;;;;11.16;65.27;95599.91;106079;1280;25335;-67
2023/03/23 08:17:23;;;;;;;5.80;4.30;;;;;;;11.46;59.95;95600.15;105820;1278;23379;-64
2023/03/23 08:21:19;;;;;;;;;;;;;;;;;;;;;
2023/03/23 08:25:00;;;;;;;5.60;4.00;;;;;;;11.94;57.45;95587.61;105192;1288;22821;-67
2023/03/23 08:28:38;;;;;;;5.60;4.00;;;;;;;12.10;56.61;95588.48;105624;1288;22873;-65
2023/03/23 08:36:02;;;;;;;5.10;4.20;;;;;;;12.65;57.72;95588.30;106106;1282;22634;-70
2023/03/23 08:43:38;;;;;;;;;;;;;;;;;;;;;
2023/03/23 08:51:12;;;;;;;5.70;3.80;;;;;;;13.41;51.77;95584.23;105992;1275;24383;-65
2023/03/23 08:55:03;;;;;;;4.00;3.60;;;;;;;13.70;51.14;95582.32;106002;1281;22651;-65
2023/03/23 09:03:07;;;;;;;5.90;4.70;;;;;;;14.18;49.70;95569.95;106055;1282;22790;-72
2023/03/23 09:06:57;;;;;;;4.00;3.20;;;;;;;14.41;49.81;95572.04;106058;1282;22754;-65
2023/03/23 09:10:44;;;;;;;5.30;3.50;;;;;;;14.51;48.32;95577.38;105955;1277;25400;-68
2023/03/23 09:17:28;;;;;;;5.80;3.90;;;;;;;14.58;48.48;95574.84;106098;1282;22526;-70
2023/03/23 09:21:13;;;;;;;4.80;3.50;;;;;;;14.84;49.39;95571.46;106212;1282;22522;-66
2023/03/23 09:24:26;;;;;;;;;;;;;;;;;;;;;
2023/03/23 09:31:53;;;;;;;;;;;;;;;;;;;;;
2023/03/23 09:38:49;;;;;;;3.50;3.20;;;;;;;15.72;44.03;95547.27;106093;1283;22525;-65
2023/03/23 09:42:39;;;;;;;;;;;;;;;;;;;;;
2023/03/23 09:46:24;;;;;;;3.50;2.70;;;;;;;16.02;43.53;95547.69;106149;1283;22539;-67
2023/03/23 09:49:33;;;;;;;;;;;;;;;;;;;;;
2023/03/23 09:53:01;;;;;;;4.40;2.90;;;;;;;16.35;44.03;95540.81;106091;1282;25652;-73
2023/03/23 09:56:33;;;;;;;;;;;;;;;;;;;;;
2023/03/23 10:00:16;;;;;;;;;;;;;;;;;;;;;
2023/03/23 10:03:29;;;;;;;;;;;;;;;;;;;;;
2023/03/23 10:07:25;;;;;;;4.70;3.60;;;;;;;16.36;41.96;95537.91;106247;1282;25325;-70
2023/03/23 10:10:26;;;;;;;5.60;4.30;;;;;;;16.43;42.54;95534.09;106042;1283;22805;-73
2023/03/23 10:14:00;;;;;;;16.60;8.10;;;;;;;16.81;43.38;95530.70;106101;1283;22584;-71
2023/03/23 10:17:27;;;;;;;20.60;8.70;;;;;;;17.11;40.59;95528.66;106123;1283;25589;-74
2023/03/23 10:21:05;;;;;;;;;;;;;;;;;;;;;
2023/03/23 10:24:25;;;;;;;3.60;3.00;;;;;;;17.65;39.46;95522.61;106029;1283;22555;-72
2023/03/23 10:27:40;;;;;;;4.60;2.80;;;;;;;17.90;37.56;95520.52;106111;1282;22633;-66
2023/03/23 10:30:48;;;;;;;3.50;2.60;;;;;;;17.96;38.30;95525.41;106191;1283;24050;-71
2023/03/23 10:34:05;;;;;;;3.60;3.00;;;;;;;17.84;38.52;95522.48;106009;1283;22569;-73
2023/03/23 10:37:10;;;;;;;3.20;2.50;;;;;;;17.83;37.55;95519.64;106138;1283;25478;-71
2023/03/23 10:40:18;;;;;;;2.90;2.60;;;;;;;17.88;37.97;95519.05;106094;1283;22523;-66
2023/03/23 10:43:32;;;;;;;3.10;2.60;;;;;;;17.97;37.94;95510.94;106998;1283;24240;-66
2023/03/23 10:46:36;;;;;;;4.60;2.70;;;;;;;18.11;36.31;95511.89;106017;1282;22658;-69
2023/03/23 10:49:36;;;;;;;2.70;2.40;;;;;;;18.09;36.46;95509.83;106046;1283;23925;-71
2023/03/23 10:52:40;;;;;;;2.80;2.50;;;;;;;18.37;37.85;95510.58;106005;1282;22922;-65
2023/03/23 10:55:31;;;;;;;3.30;2.40;;;;;;;18.70;36.16;95511.56;106254;1283;25431;-67
2023/03/23 10:58:33;;;;;;;3.80;2.60;;;;;;;18.73;35.00;95504.98;106269;1283;22654;-74
2023/03/23 11:01:20;;;;;;;2.50;2.30;;;;;;;18.71;34.75;95503.31;106221;1283;22590;-72
2023/03/23 11:04:19;;;;;;;2.50;2.30;;;;;;;18.80;34.85;95506.23;106128;1283;22783;-73
